sensor_id;sensor_type;location;lat;lon;timestamp;P1;durP1;ratioP1;P2;durP2;ratioP2
77322;SDS011;66384;51.052;9.850;2023-03-21T00:01:15;5.90;;;2.50;;
77322;SDS011;66384;51.052;9.850;2023-03-21T00:03:44;5.30;;;2.70;;
77322;SDS011;66384;51.052;9.850;2023-03-21T00:06:14;4.20;;;2.30;;
77322;SDS011;66384;51.052;9.850;2023-03-21T00:08:43;4.20;;;2.60;;
77322;SDS011;66384;51.052;9.850;2023-03-21T00:11:13;3.70;;;2.40;;
77322;SDS011;66384;51.052;9.850;2023-03-21T00:13:42;7.60;;;2.80;;
77322;SDS011;66384;51.052;9.850;2023-03-21T00:16:12;5.50;;;2.30;;
77322;SDS011;66384;51.052;9.850;2023-03-21T00:18:42;6.60;;;2.40;;
77322;SDS011;66384;51.052;9.850;2023-03-21T00:21:14;3.20;;;2.10;;
77322;SDS011;66384;51.052;9.850;2023-03-21T00:23:45;4.90;;;2.30;;
77322;SDS011;66384;51.052;9.850;2023-03-21T00:26:15;6.60;;;2.50;;
77322;SDS011;66384;51.052;9.850;2023-03-21T00:28:44;6.80;;;2.60;;
77322;SDS011;66384;51.052;9.850;2023-03-21T00:31:13;4.80;;;2.40;;
77322;SDS011;66384;51.052;9.850;2023-03-21T00:33:43;6.00;;;2.30;;
77322;SDS011;66384;51.052;9.850;2023-03-21T00:36:12;5.70;;;2.70;;
77322;SDS011;66384;51.052;9.850;2023-03-21T00:38:42;4.70;;;2.30;;
77322;SDS011;66384;51.052;9.850;2023-03-21T00:41:11;5.10;;;2.50;;
77322;SDS011;66384;51.052;9.850;2023-03-21T00:43:41;5.50;;;2.00;;
77322;SDS011;66384;51.052;9.850;2023-03-21T00:46:10;5.10;;;2.40;;
77322;SDS011;66384;51.052;9.850;2023-03-21T00:48:39;5.30;;;2.30;;
77322;SDS011;66384;51.052;9.850;2023-03-21T00:51:12;5.10;;;2.60;;
77322;SDS011;66384;51.052;9.850;2023-03-21T00:53:51;3.70;;;2.40;;
77322;SDS011;66384;51.052;9.850;2023-03-21T00:56:22;5.60;;;2.70;;
77322;SDS011;66384;51.052;9.850;2023-03-21T00:58:51;3.70;;;2.30;;
77322;SDS011;66384;51.052;9.850;2023-03-21T01:01:20;2.40;;;1.80;;
77322;SDS011;66384;51.052;9.850;2023-03-21T01:06:30;4.20;;;1.90;;
77322;SDS011;66384;51.052;9.850;2023-03-21T01:09:04;3.60;;;2.40;;
77322;SDS011;66384;51.052;9.850;2023-03-21T01:11:37;5.70;;;2.20;;
77322;SDS011;66384;51.052;9.850;2023-03-21T01:14:07;3.80;;;2.00;;
77322;SDS011;66384;51.052;9.850;2023-03-21T01:16:37;4.70;;;2.00;;
77322;SDS011;66384;51.052;9.850;2023-03-21T01:19:07;3.50;;;2.30;;
77322;SDS011;66384;51.052;9.850;2023-03-21T01:21:38;7.30;;;2.40;;
77322;SDS011;66384;51.052;9.850;2023-03-21T01:24:08;3.60;;;2.10;;
77322;SDS011;66384;51.052;9.850;2023-03-21T01:26:37;5.90;;;2.50;;
77322;SDS011;66384;51.052;9.850;2023-03-21T01:29:06;3.70;;;2.10;;
77322;SDS011;66384;51.052;9.850;2023-03-21T01:31:36;3.70;;;2.20;;
77322;SDS011;66384;51.052;9.850;2023-03-21T01:34:06;6.50;;;2.40;;
77322;SDS011;66384;51.052;9.850;2023-03-21T01:36:35;4.10;;;2.30;;
77322;SDS011;66384;51.052;9.850;2023-03-21T01:39:04;5.20;;;2.50;;
77322;SDS011;66384;51.052;9.850;2023-03-21T01:41:35;6.80;;;3.10;;
77322;SDS011;66384;51.052;9.850;2023-03-21T01:44:06;4.40;;;2.50;;
77322;SDS011;66384;51.052;9.850;2023-03-21T01:46:38;5.20;;;2.40;;
77322;SDS011;66384;51.052;9.850;2023-03-21T01:49:13;4.90;;;2.30;;
77322;SDS011;66384;51.052;9.850;2023-03-21T01:51:47;3.90;;;2.10;;
77322;SDS011;66384;51.052;9.850;2023-03-21T01:54:20;4.20;;;2.50;;
77322;SDS011;66384;51.052;9.850;2023-03-21T01:56:53;5.20;;;2.40;;
77322;SDS011;66384;51.052;9.850;2023-03-21T01:59:26;4.10;;;2.20;;
77322;SDS011;66384;51.052;9.850;2023-03-21T02:02:01;3.80;;;2.20;;
77322;SDS011;66384;51.052;9.850;2023-03-21T02:04:35;5.40;;;2.60;;
77322;SDS011;66384;51.052;9.850;2023-03-21T02:07:07;4.20;;;2.20;;
77322;SDS011;66384;51.052;9.850;2023-03-21T02:09:41;2.60;;;1.70;;
77322;SDS011;66384;51.052;9.850;2023-03-21T02:12:15;6.40;;;2.00;;
77322;SDS011;66384;51.052;9.850;2023-03-21T02:14:45;3.50;;;2.00;;
77322;SDS011;66384;51.052;9.850;2023-03-21T02:17:17;4.60;;;2.80;;
77322;SDS011;66384;51.052;9.850;2023-03-21T02:20:08;5.50;;;1.90;;
77322;SDS011;66384;51.052;9.850;2023-03-21T02:23:07;8.20;;;1.90;;
77322;SDS011;66384;51.052;9.850;2023-03-21T02:29:01;5.70;;;2.00;;
77322;SDS011;66384;51.052;9.850;2023-03-21T02:31:41;4.40;;;2.10;;
77322;SDS011;66384;51.052;9.850;2023-03-21T02:34:32;3.60;;;2.20;;
77322;SDS011;66384;51.052;9.850;2023-03-21T02:37:14;5.40;;;2.30;;
77322;SDS011;66384;51.052;9.850;2023-03-21T02:39:52;5.20;;;2.20;;
77322;SDS011;66384;51.052;9.850;2023-03-21T02:42:28;6.10;;;2.20;;
77322;SDS011;66384;51.052;9.850;2023-03-21T02:45:08;3.90;;;2.40;;
77322;SDS011;66384;51.052;9.850;2023-03-21T02:50:15;3.80;;;2.20;;
77322;SDS011;66384;51.052;9.850;2023-03-21T02:52:49;6.70;;;2.30;;
77322;SDS011;66384;51.052;9.850;2023-03-21T02:55:21;4.90;;;2.30;;
77322;SDS011;66384;51.052;9.850;2023-03-21T02:57:54;5.50;;;2.60;;
77322;SDS011;66384;51.052;9.850;2023-03-21T03:00:25;3.40;;;1.90;;
77322;SDS011;66384;51.052;9.850;2023-03-21T03:02:56;7.40;;;2.50;;
77322;SDS011;66384;51.052;9.850;2023-03-21T03:05:27;5.60;;;2.20;;
77322;SDS011;66384;51.052;9.850;2023-03-21T03:08:04;10.30;;;2.30;;
77322;SDS011;66384;51.052;9.850;2023-03-21T03:10:44;5.10;;;2.20;;
77322;SDS011;66384;51.052;9.850;2023-03-21T03:13:26;3.30;;;2.30;;
77322;SDS011;66384;51.052;9.850;2023-03-21T03:16:05;4.30;;;2.10;;
77322;SDS011;66384;51.052;9.850;2023-03-21T03:18:49;4.60;;;2.30;;
77322;SDS011;66384;51.052;9.850;2023-03-21T03:21:23;5.30;;;2.70;;
77322;SDS011;66384;51.052;9.850;2023-03-21T03:23:58;5.30;;;2.80;;
77322;SDS011;66384;51.052;9.850;2023-03-21T03:26:33;7.20;;;3.60;;
77322;SDS011;66384;51.052;9.850;2023-03-21T03:29:06;6.10;;;3.20;;
77322;SDS011;66384;51.052;9.850;2023-03-21T03:31:40;5.50;;;2.80;;
77322;SDS011;66384;51.052;9.850;2023-03-21T03:34:14;6.50;;;2.90;;
77322;SDS011;66384;51.052;9.850;2023-03-21T03:36:48;7.20;;;3.20;;
77322;SDS011;66384;51.052;9.850;2023-03-21T03:39:23;4.40;;;2.20;;
77322;SDS011;66384;51.052;9.850;2023-03-21T03:42:00;4.00;;;2.10;;
77322;SDS011;66384;51.052;9.850;2023-03-21T03:44:33;3.90;;;2.50;;
77322;SDS011;66384;51.052;9.850;2023-03-21T03:47:04;5.90;;;2.30;;
77322;SDS011;66384;51.052;9.850;2023-03-21T03:49:36;6.30;;;3.50;;
77322;SDS011;66384;51.052;9.850;2023-03-21T03:52:11;5.90;;;2.40;;
77322;SDS011;66384;51.052;9.850;2023-03-21T03:54:47;4.10;;;2.30;;
77322;SDS011;66384;51.052;9.850;2023-03-21T03:57:17;4.10;;;2.40;;
77322;SDS011;66384;51.052;9.850;2023-03-21T03:59:47;6.60;;;2.20;;
77322;SDS011;66384;51.052;9.850;2023-03-21T04:02:16;6.30;;;2.40;;
77322;SDS011;66384;51.052;9.850;2023-03-21T04:04:46;5.60;;;2.70;;
77322;SDS011;66384;51.052;9.850;2023-03-21T04:07:18;6.20;;;2.30;;
77322;SDS011;66384;51.052;9.850;2023-03-21T04:09:47;5.00;;;2.20;;
77322;SDS011;66384;51.052;9.850;2023-03-21T04:12:17;5.10;;;2.60;;
77322;SDS011;66384;51.052;9.850;2023-03-21T04:14:46;4.20;;;2.40;;
77322;SDS011;66384;51.052;9.850;2023-03-21T04:17:17;6.20;;;2.60;;
77322;SDS011;66384;51.052;9.850;2023-03-21T04:19:46;5.20;;;2.10;;
77322;SDS011;66384;51.052;9.850;2023-03-21T04:22:17;4.60;;;2.50;;
77322;SDS011;66384;51.052;9.850;2023-03-21T04:24:46;4.40;;;2.20;;
77322;SDS011;66384;51.052;9.850;2023-03-21T04:27:15;5.50;;;3.00;;
77322;SDS011;66384;51.052;9.850;2023-03-21T04:29:45;4.60;;;2.70;;
77322;SDS011;66384;51.052;9.850;2023-03-21T04:32:15;2.80;;;2.00;;
77322;SDS011;66384;51.052;9.850;2023-03-21T04:34:45;4.70;;;2.30;;
77322;SDS011;66384;51.052;9.850;2023-03-21T04:37:15;7.70;;;2.50;;
77322;SDS011;66384;51.052;9.850;2023-03-21T04:39:45;3.20;;;2.10;;
77322;SDS011;66384;51.052;9.850;2023-03-21T04:42:14;7.00;;;2.30;;
77322;SDS011;66384;51.052;9.850;2023-03-21T04:44:44;5.40;;;2.30;;
77322;SDS011;66384;51.052;9.850;2023-03-21T04:47:14;4.90;;;2.50;;
77322;SDS011;66384;51.052;9.850;2023-03-21T04:49:45;3.80;;;2.60;;
77322;SDS011;66384;51.052;9.850;2023-03-21T04:52:15;5.20;;;2.60;;
77322;SDS011;66384;51.052;9.850;2023-03-21T04:54:44;3.90;;;2.40;;
77322;SDS011;66384;51.052;9.850;2023-03-21T04:57:13;6.80;;;2.90;;
77322;SDS011;66384;51.052;9.850;2023-03-21T04:59:42;5.30;;;2.40;;
77322;SDS011;66384;51.052;9.850;2023-03-21T05:02:12;4.00;;;2.50;;
77322;SDS011;66384;51.052;9.850;2023-03-21T05:04:41;5.80;;;2.70;;
77322;SDS011;66384;51.052;9.850;2023-03-21T05:07:10;5.90;;;2.50;;
77322;SDS011;66384;51.052;9.850;2023-03-21T05:09:40;5.40;;;2.90;;
77322;SDS011;66384;51.052;9.850;2023-03-21T05:12:09;6.40;;;2.90;;
77322;SDS011;66384;51.052;9.850;2023-03-21T05:14:39;4.50;;;2.50;;
77322;SDS011;66384;51.052;9.850;2023-03-21T05:17:08;5.40;;;2.60;;
77322;SDS011;66384;51.052;9.850;2023-03-21T05:19:50;5.70;;;2.40;;
77322;SDS011;66384;51.052;9.850;2023-03-21T05:22:22;4.10;;;2.40;;
77322;SDS011;66384;51.052;9.850;2023-03-21T05:24:52;7.60;;;2.70;;
77322;SDS011;66384;51.052;9.850;2023-03-21T05:27:22;7.10;;;2.90;;
77322;SDS011;66384;51.052;9.850;2023-03-21T05:30:05;8.00;;;2.70;;
77322;SDS011;66384;51.052;9.850;2023-03-21T05:32:37;4.80;;;2.50;;
77322;SDS011;66384;51.052;9.850;2023-03-21T05:35:07;6.20;;;3.00;;
77322;SDS011;66384;51.052;9.850;2023-03-21T05:37:37;6.50;;;2.60;;
77322;SDS011;66384;51.052;9.850;2023-03-21T05:40:08;5.40;;;2.50;;
77322;SDS011;66384;51.052;9.850;2023-03-21T05:42:38;5.00;;;2.80;;
77322;SDS011;66384;51.052;9.850;2023-03-21T05:45:08;4.90;;;2.80;;
77322;SDS011;66384;51.052;9.850;2023-03-21T05:47:38;6.80;;;3.20;;
77322;SDS011;66384;51.052;9.850;2023-03-21T05:50:09;4.40;;;2.20;;
77322;SDS011;66384;51.052;9.850;2023-03-21T05:52:39;5.00;;;2.80;;
77322;SDS011;66384;51.052;9.850;2023-03-21T05:55:09;6.70;;;3.00;;
77322;SDS011;66384;51.052;9.850;2023-03-21T05:57:38;6.50;;;2.90;;
77322;SDS011;66384;51.052;9.850;2023-03-21T06:00:09;5.00;;;2.80;;
77322;SDS011;66384;51.052;9.850;2023-03-21T06:02:39;7.00;;;2.70;;
77322;SDS011;66384;51.052;9.850;2023-03-21T06:05:09;5.90;;;2.60;;
77322;SDS011;66384;51.052;9.850;2023-03-21T06:07:39;5.80;;;3.10;;
77322;SDS011;66384;51.052;9.850;2023-03-21T06:10:09;16.30;;;7.50;;
77322;SDS011;66384;51.052;9.850;2023-03-21T06:12:39;5.40;;;2.90;;
77322;SDS011;66384;51.052;9.850;2023-03-21T06:15:09;6.30;;;3.00;;
77322;SDS011;66384;51.052;9.850;2023-03-21T06:17:39;7.80;;;3.30;;
77322;SDS011;66384;51.052;9.850;2023-03-21T06:20:10;6.00;;;3.20;;
77322;SDS011;66384;51.052;9.850;2023-03-21T06:22:39;3.30;;;2.50;;
77322;SDS011;66384;51.052;9.850;2023-03-21T06:25:09;6.80;;;3.20;;
77322;SDS011;66384;51.052;9.850;2023-03-21T06:27:38;6.80;;;3.20;;
77322;SDS011;66384;51.052;9.850;2023-03-21T06:30:09;6.20;;;3.00;;
77322;SDS011;66384;51.052;9.850;2023-03-21T06:32:39;8.40;;;3.70;;
77322;SDS011;66384;51.052;9.850;2023-03-21T06:35:09;13.20;;;3.60;;
77322;SDS011;66384;51.052;9.850;2023-03-21T06:37:38;8.00;;;3.40;;
77322;SDS011;66384;51.052;9.850;2023-03-21T06:40:09;9.20;;;4.10;;
77322;SDS011;66384;51.052;9.850;2023-03-21T06:45:07;9.00;;;4.30;;
77322;SDS011;66384;51.052;9.850;2023-03-21T06:47:37;6.60;;;3.30;;
77322;SDS011;66384;51.052;9.850;2023-03-21T06:50:08;5.00;;;3.10;;
77322;SDS011;66384;51.052;9.850;2023-03-21T06:52:38;5.90;;;3.30;;
77322;SDS011;66384;51.052;9.850;2023-03-21T06:55:08;6.50;;;3.60;;
77322;SDS011;66384;51.052;9.850;2023-03-21T06:57:37;11.70;;;3.10;;
77322;SDS011;66384;51.052;9.850;2023-03-21T07:00:08;4.70;;;3.60;;
77322;SDS011;66384;51.052;9.850;2023-03-21T07:02:39;7.10;;;3.10;;
77322;SDS011;66384;51.052;9.850;2023-03-21T07:05:08;8.30;;;3.50;;
77322;SDS011;66384;51.052;9.850;2023-03-21T07:07:38;8.30;;;3.50;;
77322;SDS011;66384;51.052;9.850;2023-03-21T07:10:08;7.90;;;3.60;;
77322;SDS011;66384;51.052;9.850;2023-03-21T07:12:38;4.30;;;3.10;;
77322;SDS011;66384;51.052;9.850;2023-03-21T07:15:08;7.00;;;3.10;;
77322;SDS011;66384;51.052;9.850;2023-03-21T07:17:38;4.90;;;2.70;;
77322;SDS011;66384;51.052;9.850;2023-03-21T07:20:08;6.20;;;2.90;;
77322;SDS011;66384;51.052;9.850;2023-03-21T07:22:39;6.80;;;3.00;;
77322;SDS011;66384;51.052;9.850;2023-03-21T07:25:09;6.40;;;3.00;;
77322;SDS011;66384;51.052;9.850;2023-03-21T07:27:38;5.80;;;2.80;;
77322;SDS011;66384;51.052;9.850;2023-03-21T07:30:09;7.90;;;3.60;;
77322;SDS011;66384;51.052;9.850;2023-03-21T07:32:39;5.40;;;3.00;;
77322;SDS011;66384;51.052;9.850;2023-03-21T07:35:11;6.90;;;3.20;;
77322;SDS011;66384;51.052;9.850;2023-03-21T07:37:42;6.80;;;3.60;;
77322;SDS011;66384;51.052;9.850;2023-03-21T07:40:12;6.90;;;3.60;;
77322;SDS011;66384;51.052;9.850;2023-03-21T07:42:41;6.50;;;3.00;;
77322;SDS011;66384;51.052;9.850;2023-03-21T07:45:11;8.30;;;4.00;;
77322;SDS011;66384;51.052;9.850;2023-03-21T07:47:46;7.50;;;3.10;;
77322;SDS011;66384;51.052;9.850;2023-03-21T07:50:16;7.40;;;3.80;;
77322;SDS011;66384;51.052;9.850;2023-03-21T07:52:45;6.20;;;3.70;;
77322;SDS011;66384;51.052;9.850;2023-03-21T07:55:15;8.10;;;3.70;;
77322;SDS011;66384;51.052;9.850;2023-03-21T07:57:45;5.40;;;3.30;;
77322;SDS011;66384;51.052;9.850;2023-03-21T08:00:18;6.20;;;3.00;;
77322;SDS011;66384;51.052;9.850;2023-03-21T08:02:50;6.90;;;3.70;;
77322;SDS011;66384;51.052;9.850;2023-03-21T08:05:21;5.20;;;3.10;;
77322;SDS011;66384;51.052;9.850;2023-03-21T08:07:52;7.50;;;3.70;;
77322;SDS011;66384;51.052;9.850;2023-03-21T08:10:21;6.50;;;3.60;;
77322;SDS011;66384;51.052;9.850;2023-03-21T08:12:51;6.70;;;3.70;;
77322;SDS011;66384;51.052;9.850;2023-03-21T08:15:21;9.20;;;4.00;;
77322;SDS011;66384;51.052;9.850;2023-03-21T08:17:50;9.80;;;4.30;;
77322;SDS011;66384;51.052;9.850;2023-03-21T08:20:20;9.20;;;4.70;;
77322;SDS011;66384;51.052;9.850;2023-03-21T08:22:50;7.20;;;3.50;;
77322;SDS011;66384;51.052;9.850;2023-03-21T08:25:20;6.80;;;3.80;;
77322;SDS011;66384;51.052;9.850;2023-03-21T08:27:50;8.00;;;4.50;;
77322;SDS011;66384;51.052;9.850;2023-03-21T08:30:20;7.30;;;4.10;;
77322;SDS011;66384;51.052;9.850;2023-03-21T08:32:54;6.60;;;3.80;;
77322;SDS011;66384;51.052;9.850;2023-03-21T08:35:25;9.30;;;4.00;;
77322;SDS011;66384;51.052;9.850;2023-03-21T08:37:55;10.70;;;4.80;;
77322;SDS011;66384;51.052;9.850;2023-03-21T08:40:24;6.70;;;3.90;;
77322;SDS011;66384;51.052;9.850;2023-03-21T08:42:53;10.00;;;4.20;;
77322;SDS011;66384;51.052;9.850;2023-03-21T08:45:23;11.90;;;4.20;;
77322;SDS011;66384;51.052;9.850;2023-03-21T08:47:53;6.90;;;3.30;;
77322;SDS011;66384;51.052;9.850;2023-03-21T08:50:23;7.10;;;3.60;;
77322;SDS011;66384;51.052;9.850;2023-03-21T08:52:55;16.70;;;4.40;;
77322;SDS011;66384;51.052;9.850;2023-03-21T08:55:24;6.40;;;3.80;;
77322;SDS011;66384;51.052;9.850;2023-03-21T08:57:53;7.90;;;3.30;;
77322;SDS011;66384;51.052;9.850;2023-03-21T09:00:24;7.90;;;3.70;;
77322;SDS011;66384;51.052;9.850;2023-03-21T09:02:53;9.60;;;4.70;;
77322;SDS011;66384;51.052;9.850;2023-03-21T09:05:24;6.30;;;3.80;;
77322;SDS011;66384;51.052;9.850;2023-03-21T09:07:53;5.30;;;3.10;;
77322;SDS011;66384;51.052;9.850;2023-03-21T09:10:23;7.60;;;4.30;;
77322;SDS011;66384;51.052;9.850;2023-03-21T09:12:53;8.70;;;4.20;;
77322;SDS011;66384;51.052;9.850;2023-03-21T09:15:24;6.50;;;4.00;;
77322;SDS011;66384;51.052;9.850;2023-03-21T09:17:54;10.90;;;4.50;;
77322;SDS011;66384;51.052;9.850;2023-03-21T09:20:38;10.20;;;4.60;;
77322;SDS011;66384;51.052;9.850;2023-03-21T09:23:08;8.10;;;4.80;;
77322;SDS011;66384;51.052;9.850;2023-03-21T09:25:38;9.10;;;4.80;;
77322;SDS011;66384;51.052;9.850;2023-03-21T09:28:08;8.30;;;5.30;;
77322;SDS011;66384;51.052;9.850;2023-03-21T09:30:38;8.70;;;4.70;;
77322;SDS011;66384;51.052;9.850;2023-03-21T09:33:08;9.60;;;4.40;;
77322;SDS011;66384;51.052;9.850;2023-03-21T09:35:51;9.60;;;4.70;;
77322;SDS011;66384;51.052;9.850;2023-03-21T09:38:20;10.40;;;4.80;;
77322;SDS011;66384;51.052;9.850;2023-03-21T09:41:02;7.40;;;4.00;;
77322;SDS011;66384;51.052;9.850;2023-03-21T09:43:42;7.60;;;4.30;;
77322;SDS011;66384;51.052;9.850;2023-03-21T09:46:23;11.80;;;4.80;;
77322;SDS011;66384;51.052;9.850;2023-03-21T09:49:01;8.20;;;3.80;;
77322;SDS011;66384;51.052;9.850;2023-03-21T09:51:38;8.50;;;4.60;;
77322;SDS011;66384;51.052;9.850;2023-03-21T09:54:12;11.30;;;5.30;;
77322;SDS011;66384;51.052;9.850;2023-03-21T09:56:47;13.50;;;5.60;;
77322;SDS011;66384;51.052;9.850;2023-03-21T09:59:21;7.40;;;4.40;;
77322;SDS011;66384;51.052;9.850;2023-03-21T10:01:54;13.40;;;5.40;;
77322;SDS011;66384;51.052;9.850;2023-03-21T10:04:25;9.80;;;5.30;;
77322;SDS011;66384;51.052;9.850;2023-03-21T10:06:58;8.40;;;5.80;;
77322;SDS011;66384;51.052;9.850;2023-03-21T10:09:29;10.90;;;4.80;;
77322;SDS011;66384;51.052;9.850;2023-03-21T10:12:00;8.40;;;3.90;;
77322;SDS011;66384;51.052;9.850;2023-03-21T10:14:34;6.70;;;4.10;;
77322;SDS011;66384;51.052;9.850;2023-03-21T10:17:08;7.30;;;4.40;;
77322;SDS011;66384;51.052;9.850;2023-03-21T10:19:48;10.40;;;5.00;;
77322;SDS011;66384;51.052;9.850;2023-03-21T10:22:29;7.70;;;4.40;;
77322;SDS011;66384;51.052;9.850;2023-03-21T10:24:58;9.50;;;4.50;;
77322;SDS011;66384;51.052;9.850;2023-03-21T10:27:27;9.90;;;4.20;;
77322;SDS011;66384;51.052;9.850;2023-03-21T10:29:57;8.40;;;4.80;;
77322;SDS011;66384;51.052;9.850;2023-03-21T10:32:27;6.90;;;4.00;;
77322;SDS011;66384;51.052;9.850;2023-03-21T10:34:57;11.60;;;5.10;;
77322;SDS011;66384;51.052;9.850;2023-03-21T10:37:29;8.00;;;4.30;;
77322;SDS011;66384;51.052;9.850;2023-03-21T10:40:02;7.90;;;3.80;;
77322;SDS011;66384;51.052;9.850;2023-03-21T10:42:33;9.10;;;4.30;;
77322;SDS011;66384;51.052;9.850;2023-03-21T10:45:03;10.60;;;4.20;;
77322;SDS011;66384;51.052;9.850;2023-03-21T10:47:44;6.90;;;4.10;;
77322;SDS011;66384;51.052;9.850;2023-03-21T10:50:16;7.40;;;3.90;;
77322;SDS011;66384;51.052;9.850;2023-03-21T10:52:52;5.40;;;3.60;;
77322;SDS011;66384;51.052;9.850;2023-03-21T10:55:26;7.90;;;3.40;;
77322;SDS011;66384;51.052;9.850;2023-03-21T10:57:59;7.40;;;3.90;;
77322;SDS011;66384;51.052;9.850;2023-03-21T11:00:35;7.50;;;3.40;;
77322;SDS011;66384;51.052;9.850;2023-03-21T11:03:06;9.30;;;3.50;;
77322;SDS011;66384;51.052;9.850;2023-03-21T11:05:47;7.00;;;3.20;;
77322;SDS011;66384;51.052;9.850;2023-03-21T11:08:19;7.90;;;3.50;;
77322;SDS011;66384;51.052;9.850;2023-03-21T11:10:53;9.10;;;4.10;;
77322;SDS011;66384;51.052;9.850;2023-03-21T11:13:32;9.50;;;5.30;;
77322;SDS011;66384;51.052;9.850;2023-03-21T11:16:05;9.90;;;4.10;;
77322;SDS011;66384;51.052;9.850;2023-03-21T11:18:40;5.00;;;3.10;;
77322;SDS011;66384;51.052;9.850;2023-03-21T11:21:13;7.10;;;3.70;;
77322;SDS011;66384;51.052;9.850;2023-03-21T11:23:43;5.30;;;3.10;;
77322;SDS011;66384;51.052;9.850;2023-03-21T11:26:17;5.20;;;3.20;;
77322;SDS011;66384;51.052;9.850;2023-03-21T11:28:49;8.50;;;3.50;;
77322;SDS011;66384;51.052;9.850;2023-03-21T11:31:20;7.70;;;3.10;;
77322;SDS011;66384;51.052;9.850;2023-03-21T11:33:51;5.90;;;3.30;;
77322;SDS011;66384;51.052;9.850;2023-03-21T11:36:30;8.30;;;4.00;;
77322;SDS011;66384;51.052;9.850;2023-03-21T11:39:11;9.60;;;4.70;;
77322;SDS011;66384;51.052;9.850;2023-03-21T11:41:51;8.00;;;3.40;;
77322;SDS011;66384;51.052;9.850;2023-03-21T11:44:24;5.70;;;3.20;;
77322;SDS011;66384;51.052;9.850;2023-03-21T11:46:56;8.30;;;3.90;;
77322;SDS011;66384;51.052;9.850;2023-03-21T11:49:26;8.80;;;3.80;;
77322;SDS011;66384;51.052;9.850;2023-03-21T11:52:02;5.30;;;2.70;;
77322;SDS011;66384;51.052;9.850;2023-03-21T11:54:47;10.00;;;3.90;;
77322;SDS011;66384;51.052;9.850;2023-03-21T11:57:32;10.70;;;5.50;;
77322;SDS011;66384;51.052;9.850;2023-03-21T12:00:12;9.40;;;4.80;;
77322;SDS011;66384;51.052;9.850;2023-03-21T12:02:55;7.40;;;3.80;;
77322;SDS011;66384;51.052;9.850;2023-03-21T12:05:40;10.00;;;3.90;;
77322;SDS011;66384;51.052;9.850;2023-03-21T12:08:17;8.20;;;3.30;;
77322;SDS011;66384;51.052;9.850;2023-03-21T12:10:59;7.90;;;3.70;;
77322;SDS011;66384;51.052;9.850;2023-03-21T12:13:38;10.40;;;3.90;;
77322;SDS011;66384;51.052;9.850;2023-03-21T12:16:27;7.20;;;4.20;;
77322;SDS011;66384;51.052;9.850;2023-03-21T12:19:10;8.20;;;3.90;;
77322;SDS011;66384;51.052;9.850;2023-03-21T12:21:50;6.90;;;3.30;;
77322;SDS011;66384;51.052;9.850;2023-03-21T12:24:28;9.90;;;3.60;;
77322;SDS011;66384;51.052;9.850;2023-03-21T12:27:08;10.40;;;5.00;;
77322;SDS011;66384;51.052;9.850;2023-03-21T12:29:54;11.10;;;4.10;;
77322;SDS011;66384;51.052;9.850;2023-03-21T12:32:34;6.30;;;4.20;;
77322;SDS011;66384;51.052;9.850;2023-03-21T12:35:18;9.10;;;3.90;;
77322;SDS011;66384;51.052;9.850;2023-03-21T12:37:59;11.10;;;4.00;;
77322;SDS011;66384;51.052;9.850;2023-03-21T12:40:42;9.00;;;4.10;;
77322;SDS011;66384;51.052;9.850;2023-03-21T12:43:27;10.90;;;3.20;;
77322;SDS011;66384;51.052;9.850;2023-03-21T12:46:04;8.10;;;3.50;;
77322;SDS011;66384;51.052;9.850;2023-03-21T12:48:41;9.20;;;4.10;;
77322;SDS011;66384;51.052;9.850;2023-03-21T12:51:15;10.50;;;4.70;;
77322;SDS011;66384;51.052;9.850;2023-03-21T12:53:55;9.90;;;5.60;;
77322;SDS011;66384;51.052;9.850;2023-03-21T12:56:32;8.10;;;4.20;;
77322;SDS011;66384;51.052;9.850;2023-03-21T12:59:10;7.30;;;4.20;;
77322;SDS011;66384;51.052;9.850;2023-03-21T13:01:47;4.70;;;3.30;;
77322;SDS011;66384;51.052;9.850;2023-03-21T13:04:27;12.70;;;7.60;;
77322;SDS011;66384;51.052;9.850;2023-03-21T13:07:02;8.40;;;4.90;;
77322;SDS011;66384;51.052;9.850;2023-03-21T13:09:37;6.30;;;3.70;;
77322;SDS011;66384;51.052;9.850;2023-03-21T13:12:12;6.70;;;4.00;;
77322;SDS011;66384;51.052;9.850;2023-03-21T13:15:00;7.90;;;3.90;;
77322;SDS011;66384;51.052;9.850;2023-03-21T13:17:41;7.10;;;4.20;;
77322;SDS011;66384;51.052;9.850;2023-03-21T13:20:18;6.50;;;4.30;;
77322;SDS011;66384;51.052;9.850;2023-03-21T13:22:53;8.70;;;3.80;;
77322;SDS011;66384;51.052;9.850;2023-03-21T13:25:23;11.30;;;4.40;;
77322;SDS011;66384;51.052;9.850;2023-03-21T13:30:22;8.10;;;4.20;;
77322;SDS011;66384;51.052;9.850;2023-03-21T13:32:57;7.50;;;3.60;;
77322;SDS011;66384;51.052;9.850;2023-03-21T13:35:34;8.10;;;4.00;;
77322;SDS011;66384;51.052;9.850;2023-03-21T13:38:09;8.50;;;4.10;;
77322;SDS011;66384;51.052;9.850;2023-03-21T13:40:44;8.70;;;3.80;;
77322;SDS011;66384;51.052;9.850;2023-03-21T13:46:09;8.20;;;4.00;;
77322;SDS011;66384;51.052;9.850;2023-03-21T13:51:44;7.30;;;3.60;;
77322;SDS011;66384;51.052;9.850;2023-03-21T13:54:19;5.70;;;3.60;;
77322;SDS011;66384;51.052;9.850;2023-03-21T13:56:54;7.50;;;4.20;;
77322;SDS011;66384;51.052;9.850;2023-03-21T13:59:39;11.70;;;5.10;;
77322;SDS011;66384;51.052;9.850;2023-03-21T14:05:03;9.00;;;4.30;;
77322;SDS011;66384;51.052;9.850;2023-03-21T14:07:44;9.60;;;4.90;;
77322;SDS011;66384;51.052;9.850;2023-03-21T14:10:18;6.40;;;3.20;;
77322;SDS011;66384;51.052;9.850;2023-03-21T14:12:49;10.40;;;4.60;;
77322;SDS011;66384;51.052;9.850;2023-03-21T14:15:20;8.30;;;4.30;;
77322;SDS011;66384;51.052;9.850;2023-03-21T14:17:53;9.70;;;5.00;;
77322;SDS011;66384;51.052;9.850;2023-03-21T14:20:25;9.10;;;4.40;;
77322;SDS011;66384;51.052;9.850;2023-03-21T14:22:56;9.10;;;4.90;;
77322;SDS011;66384;51.052;9.850;2023-03-21T14:25:31;9.70;;;4.60;;
77322;SDS011;66384;51.052;9.850;2023-03-21T14:28:04;9.30;;;4.50;;
77322;SDS011;66384;51.052;9.850;2023-03-21T14:30:40;7.30;;;4.60;;
77322;SDS011;66384;51.052;9.850;2023-03-21T14:33:12;8.80;;;4.80;;
77322;SDS011;66384;51.052;9.850;2023-03-21T14:35:54;12.20;;;6.90;;
77322;SDS011;66384;51.052;9.850;2023-03-21T14:38:26;9.80;;;5.10;;
77322;SDS011;66384;51.052;9.850;2023-03-21T14:41:02;10.30;;;5.00;;
77322;SDS011;66384;51.052;9.850;2023-03-21T14:43:32;11.40;;;5.40;;
77322;SDS011;66384;51.052;9.850;2023-03-21T14:46:01;10.70;;;5.50;;
77322;SDS011;66384;51.052;9.850;2023-03-21T14:48:32;9.20;;;5.80;;
77322;SDS011;66384;51.052;9.850;2023-03-21T14:51:02;11.30;;;5.40;;
77322;SDS011;66384;51.052;9.850;2023-03-21T14:53:36;9.30;;;5.30;;
77322;SDS011;66384;51.052;9.850;2023-03-21T14:56:07;10.00;;;5.80;;
77322;SDS011;66384;51.052;9.850;2023-03-21T14:58:44;11.00;;;5.50;;
77322;SDS011;66384;51.052;9.850;2023-03-21T15:01:16;10.70;;;5.90;;
77322;SDS011;66384;51.052;9.850;2023-03-21T15:03:57;7.40;;;5.60;;
77322;SDS011;66384;51.052;9.850;2023-03-21T15:06:30;9.90;;;5.80;;
77322;SDS011;66384;51.052;9.850;2023-03-21T15:09:01;14.50;;;5.70;;
77322;SDS011;66384;51.052;9.850;2023-03-21T15:11:32;8.20;;;4.70;;
77322;SDS011;66384;51.052;9.850;2023-03-21T15:14:04;8.50;;;5.10;;
77322;SDS011;66384;51.052;9.850;2023-03-21T15:16:35;9.30;;;5.50;;
77322;SDS011;66384;51.052;9.850;2023-03-21T15:19:05;10.90;;;6.10;;
77322;SDS011;66384;51.052;9.850;2023-03-21T15:21:41;12.80;;;6.70;;
77322;SDS011;66384;51.052;9.850;2023-03-21T15:24:15;10.10;;;5.70;;
77322;SDS011;66384;51.052;9.850;2023-03-21T15:26:48;12.10;;;5.50;;
77322;SDS011;66384;51.052;9.850;2023-03-21T15:29:26;11.50;;;6.30;;
77322;SDS011;66384;51.052;9.850;2023-03-21T15:31:56;9.80;;;4.70;;
77322;SDS011;66384;51.052;9.850;2023-03-21T15:34:26;8.90;;;5.20;;
77322;SDS011;66384;51.052;9.850;2023-03-21T15:36:57;9.80;;;5.80;;
77322;SDS011;66384;51.052;9.850;2023-03-21T15:39:32;11.40;;;6.40;;
77322;SDS011;66384;51.052;9.850;2023-03-21T15:42:03;10.00;;;5.40;;